Time;durP1;ratioP1;P1;durP2;ratioP2;P2;SDS_P1;SDS_P2;PMS_P1;PMS_P2;Temp;Humidity;BMP_temperature;BMP_pressure;BME280_temperature;BME280_humidity;BME280_pressure;Samples;Min_cycle;Max_cycle;Signal;HPM_P1;HPM_P2
2023/05/13 04:02:22;;;;;;;0.60;0.10;;;;;;;;;;5230958;23;20507;-72
2023/05/13 04:04:50;;;;;;;0.60;0.50;;;14.00;99.90;;;;;;4984503;28;20443;-71
2023/05/13 04:07:18;;;;;;;0.60;0.10;;;13.90;99.90;;;;;;4986639;28;20464;-71
2023/05/13 04:09:46;;;;;;;0.60;0.10;;;13.80;99.90;;;;;;4991228;28;20442;-72
2023/05/13 04:12:16;;;;;;;0.90;0.30;;;13.70;99.90;;;;;;4991117;28;20469;-72
2023/05/13 04:14:45;;;;;;;0.60;0.10;;;13.70;99.90;;;;;;4992223;28;20482;-72
2023/05/13 04:17:13;;;;;;;0.60;0.30;;;;;;;;;;5000641;23;20585;-74
2023/05/13 04:19:43;;;;;;;1.87;1.20;;;13.70;99.90;;;;;;4973313;28;20940;-75
2023/05/13 04:22:11;;;;;;;0.70;0.67;;;13.70;99.90;;;;;;4973349;28;20442;-75
2023/05/13 04:24:38;;;;;;;0.60;0.10;;;13.70;99.90;;;;;;4973606;28;20456;-75
2023/05/13 04:27:06;;;;;;;0.60;0.20;;;13.60;99.90;;;;;;4973119;28;20475;-74
2023/05/13 04:29:34;;;;;;;0.70;0.40;;;13.60;99.90;;;;;;4972959;28;20471;-74
2023/05/13 04:32:02;;;;;;;0.60;0.10;;;13.70;99.90;;;;;;4972736;28;20444;-74
2023/05/13 04:34:30;;;;;;;0.80;0.30;;;13.70;99.90;;;;;;4972466;28;20577;-74
2023/05/13 04:36:59;;;;;;;1.60;0.50;;;13.70;99.90;;;;;;4972501;28;20543;-75
2023/05/13 04:39:27;;;;;;;0.60;0.10;;;13.70;99.90;;;;;;4973416;28;20444;-74
2023/05/13 04:41:55;;;;;;;0.60;0.10;;;13.80;99.90;;;;;;4973121;28;20526;-74
2023/05/13 04:44:23;;;;;;;0.80;0.80;;;13.80;99.90;;;;;;4973092;28;20509;-74
2023/05/13 04:46:50;;;;;;;0.93;0.77;;;13.80;99.90;;;;;;4973175;28;20479;-74
2023/05/13 04:49:18;;;;;;;0.60;0.20;;;13.80;99.90;;;;;;4973329;28;20862;-74
2023/05/13 04:51:46;;;;;;;2.03;1.50;;;13.80;99.90;;;;;;4973257;28;20443;-74
2023/05/13 04:54:16;;;;;;;0.60;0.10;;;13.80;99.90;;;;;;4973576;28;20444;-75
2023/05/13 04:56:44;;;;;;;0.70;0.33;;;13.80;99.90;;;;;;4975975;28;20480;-75
2023/05/13 04:59:12;;;;;;;0.60;0.20;;;15.00;99.90;;;;;;4977836;28;20479;-74
2023/05/13 05:01:39;;;;;;;0.60;0.20;;;13.90;99.90;;;;;;4976218;28;20480;-74
2023/05/13 05:04:07;;;;;;;0.60;0.20;;;13.90;99.90;;;;;;4976358;28;20449;-75
2023/05/13 05:06:35;;;;;;;0.70;0.43;;;13.90;99.90;;;;;;4976851;28;20532;-73
2023/05/13 05:09:03;;;;;;;0.60;0.10;;;;;;;;;;4976997;28;20500;-75
2023/05/13 05:11:33;;;;;;;0.60;0.10;;;14.00;99.90;;;;;;4989249;28;20450;-74
2023/05/13 05:14:01;;;;;;;0.70;0.50;;;;;;;;;;4976419;28;20449;-73
2023/05/13 05:16:29;;;;;;;0.60;0.10;;;14.10;99.90;;;;;;4976293;28;20590;-73
2023/05/13 05:18:57;;;;;;;0.60;0.20;;;14.10;99.90;;;;;;4976839;28;20442;-73
2023/05/13 05:21:24;;;;;;;0.60;0.10;;;14.10;99.90;;;;;;4975951;28;20977;-74
2023/05/13 05:23:52;;;;;;;0.60;0.10;;;14.10;99.90;;;;;;4976215;28;21118;-73
2023/05/13 05:26:21;;;;;;;0.60;0.10;;;14.20;99.90;;;;;;4975985;28;20464;-73
2023/05/13 05:28:50;;;;;;;0.60;0.10;;;14.20;99.90;;;;;;4975839;28;20442;-74
2023/05/13 05:31:18;;;;;;;0.60;0.10;;;;;;;;;;4976253;28;20945;-73
2023/05/13 05:33:46;;;;;;;0.70;0.40;;;14.40;99.90;;;;;;4975999;28;20451;-74
2023/05/13 05:36:14;;;;;;;0.60;0.10;;;14.40;99.90;;;;;;4976678;28;20468;-75
2023/05/13 05:38:42;;;;;;;0.60;0.20;;;14.30;99.90;;;;;;4976307;28;20446;-73
2023/05/13 05:41:09;;;;;;;0.60;0.10;;;14.30;99.90;;;;;;4976895;28;20888;-74
2023/05/13 05:43:37;;;;;;;0.60;0.10;;;14.40;99.90;;;;;;4976306;28;20961;-74
2023/05/13 05:46:07;;;;;;;0.90;0.40;;;;;;;;;;4969611;28;20563;-75
2023/05/13 05:48:35;;;;;;;0.70;0.33;;;14.30;99.90;;;;;;4976528;28;20448;-75
2023/05/13 05:51:02;;;;;;;1.00;0.63;;;14.40;99.90;;;;;;4976690;28;20440;-75
2023/05/13 05:53:31;;;;;;;0.60;0.10;;;14.40;99.90;;;;;;4976231;28;20448;-75
2023/05/13 05:55:59;;;;;;;0.60;0.10;;;14.40;99.90;;;;;;4976096;28;20530;-74
2023/05/13 05:58:27;;;;;;;0.60;0.10;;;14.50;99.90;;;;;;4976369;28;20448;-75
2023/05/13 06:00:55;;;;;;;0.60;0.20;;;14.50;99.90;;;;;;4976457;28;20824;-74
2023/05/13 06:03:24;;;;;;;0.60;0.10;;;14.60;99.90;;;;;;4975981;28;20452;-72
2023/05/13 06:05:53;;;;;;;1.03;0.97;;;14.50;99.90;;;;;;4979800;28;20483;-74
2023/05/13 06:08:21;;;;;;;0.60;0.20;;;14.60;99.90;;;;;;4974923;28;20455;-74
2023/05/13 06:10:49;;;;;;;0.60;0.33;;;14.60;99.90;;;;;;4975478;28;20535;-74
2023/05/13 06:13:17;;;;;;;0.60;0.10;;;14.70;99.90;;;;;;4974817;28;20443;-74
2023/05/13 06:15:45;;;;;;;1.33;0.30;;;;;;;;;;4956061;28;20469;-74
2023/05/13 06:18:13;;;;;;;0.60;0.20;;;12.10;99.90;;;;;;4956167;29;20495;-74
2023/05/13 06:20:42;;;;;;;0.60;0.10;;;14.90;99.90;;;;;;4966633;28;20553;-74
2023/05/13 06:23:10;;;;;;;0.60;0.20;;;15.00;99.90;;;;;;4975840;28;20466;-73
2023/05/13 06:25:38;;;;;;;0.70;0.20;;;15.00;99.90;;;;;;4976511;28;20447;-74
2023/05/13 06:28:07;;;;;;;0.83;0.60;;;15.10;99.90;;;;;;4975469;28;20458;-75
2023/05/13 06:30:35;;;;;;;0.70;0.30;;;15.10;99.90;;;;;;4975852;28;20476;-75
2023/05/13 06:33:03;;;;;;;0.60;0.13;;;15.20;99.90;;;;;;4974530;28;20447;-75
2023/05/13 06:35:31;;;;;;;1.10;0.20;;;15.20;99.90;;;;;;4974314;28;20449;-75
2023/05/13 06:38:01;;;;;;;0.60;0.10;;;15.30;99.90;;;;;;4973987;28;20467;-75
2023/05/13 06:40:29;;;;;;;0.60;0.10;;;15.40;99.90;;;;;;4975685;28;20941;-73
2023/05/13 06:42:57;;;;;;;0.83;0.37;;;15.50;99.90;;;;;;4974924;28;20486;-74
2023/05/13 06:45:25;;;;;;;0.60;0.10;;;15.50;99.90;;;;;;4974986;28;20455;-74
2023/05/13 06:47:53;;;;;;;0.60;0.20;;;15.50;99.90;;;;;;4973710;28;20446;-75
2023/05/13 06:50:21;;;;;;;0.60;0.10;;;15.50;99.90;;;;;;4974710;28;20592;-74
2023/05/13 06:52:49;;;;;;;0.60;0.20;;;;;;;;;;4980854;28;21080;-74
2023/05/13 06:55:18;;;;;;;0.60;0.10;;;15.60;99.90;;;;;;4987436;28;20460;-74
2023/05/13 06:57:46;;;;;;;0.60;0.10;;;15.60;99.90;;;;;;4974081;28;20459;-75
2023/05/13 07:00:16;;;;;;;0.60;0.10;;;15.60;99.90;;;;;;4974987;28;20449;-74
2023/05/13 07:02:44;;;;;;;0.60;0.20;;;15.70;99.90;;;;;;4973436;28;20473;-75
2023/05/13 07:05:12;;;;;;;0.60;0.20;;;15.80;99.90;;;;;;4973974;28;20451;-75
2023/05/13 07:07:42;;;;;;;0.60;0.10;;;15.80;99.90;;;;;;4983318;28;20466;-76
2023/05/13 07:10:10;;;;;;;0.70;0.47;;;15.80;99.90;;;;;;4990668;28;20947;-74
2023/05/13 07:12:40;;;;;;;0.60;0.10;;;15.80;99.90;;;;;;4973708;28;20442;-75
2023/05/13 07:15:08;;;;;;;0.60;0.20;;;15.80;99.90;;;;;;4973487;28;20452;-75
2023/05/13 07:17:36;;;;;;;0.83;0.47;;;15.90;99.90;;;;;;4975562;28;20480;-75
2023/05/13 07:20:05;;;;;;;0.60;0.10;;;15.80;99.90;;;;;;4982335;28;20481;-74
2023/05/13 07:22:32;;;;;;;0.60;0.10;;;15.90;99.90;;;;;;4974511;28;20563;-74
2023/05/13 07:25:00;;;;;;;0.60;0.10;;;15.90;99.90;;;;;;4976056;28;20458;-75
2023/05/13 07:27:29;;;;;;;0.60;0.10;;;;;;;;;;4971912;28;20894;-75
2023/05/13 07:29:58;;;;;;;0.60;0.17;;;16.10;99.90;;;;;;4974298;28;20472;-76
2023/05/13 07:32:26;;;;;;;0.60;0.20;;;16.10;99.90;;;;;;4985580;28;20448;-72
2023/05/13 07:34:54;;;;;;;0.70;0.70;;;;;;;;;;4985530;28;20512;-74
2023/05/13 07:37:22;;;;;;;0.70;0.40;;;16.20;99.90;;;;;;4992181;28;20469;-74
2023/05/13 07:39:50;;;;;;;0.60;0.10;;;16.30;99.90;;;;;;4979461;28;20453;-75
2023/05/13 07:42:18;;;;;;;0.60;0.10;;;16.40;99.90;;;;;;4974261;28;20481;-75
2023/05/13 07:44:46;;;;;;;0.60;0.10;;;16.40;99.90;;;;;;4974544;28;20970;-75
2023/05/13 07:47:15;;;;;;;1.67;1.57;;;16.50;99.90;;;;;;4974286;28;20529;-75
2023/05/13 07:49:43;;;;;;;0.60;0.10;;;16.50;99.90;;;;;;4975089;28;20450;-75
2023/05/13 07:52:11;;;;;;;0.60;0.10;;;16.50;99.90;;;;;;4973679;28;20449;-74
2023/05/13 07:54:39;;;;;;;0.60;0.17;;;16.40;99.90;;;;;;4973979;28;20609;-75
2023/05/13 07:57:07;;;;;;;0.60;0.10;;;16.50;99.90;;;;;;4974091;28;20571;-75
2023/05/13 07:59:34;;;;;;;0.60;0.10;;;16.50;99.90;;;;;;4976481;28;20500;-76
2023/05/13 08:02:03;;;;;;;0.60;0.17;;;;;;;;;;4973705;28;20492;-76
2023/05/13 08:04:32;;;;;;;0.60;0.20;;;16.60;99.90;;;;;;4973625;28;20832;-74
2023/05/13 08:07:01;;;;;;;0.60;0.10;;;16.60;99.90;;;;;;4974481;28;20476;-75
2023/05/13 08:09:29;;;;;;;0.60;0.10;;;16.60;99.90;;;;;;4974290;28;20573;-74
2023/05/13 08:11:57;;;;;;;0.60;0.20;;;16.70;99.90;;;;;;4978682;28;20456;-74
2023/05/13 08:14:25;;;;;;;0.60;0.10;;;16.80;99.90;;;;;;4979063;28;20469;-75
2023/05/13 08:16:53;;;;;;;0.60;0.20;;;;;;;;;;4981705;28;20472;-74
2023/05/13 08:19:21;;;;;;;0.60;0.20;;;;;;;;;;4974906;28;20449;-71
2023/05/13 08:21:50;;;;;;;0.60;0.10;;;16.90;99.90;;;;;;4976493;28;20557;-76
2023/05/13 08:24:18;;;;;;;0.60;0.10;;;;;;;;;;4973818;28;20431;-77
2023/05/13 08:26:47;;;;;;;3.47;0.40;;;;;;;;;;4973289;28;20457;-75
2023/05/13 08:29:15;;;;;;;0.60;0.30;;;17.30;99.90;;;;;;4973633;28;20475;-75
2023/05/13 08:31:42;;;;;;;0.70;0.30;;;17.40;99.90;;;;;;4976668;28;20455;-75
2023/05/13 08:34:10;;;;;;;0.60;0.20;;;17.50;99.90;;;;;;4976552;28;20475;-79
2023/05/13 08:36:38;;;;;;;0.60;0.10;;;17.60;99.90;;;;;;4977262;28;20467;-75
2023/05/13 08:39:07;;;;;;;0.60;0.10;;;17.70;99.90;;;;;;4977270;28;20465;-74
2023/05/13 08:41:37;;;;;;;0.60;0.10;;;17.80;99.90;;;;;;4977596;28;20448;-75
2023/05/13 08:44:09;;;;;;;0.60;0.10;;;17.90;99.90;;;;;;4976894;28;20492;-76
2023/05/13 08:46:38;;;;;;;0.60;0.10;;;17.90;99.90;;;;;;4976271;28;20474;-76
2023/05/13 08:49:06;;;;;;;0.60;0.20;;;17.90;99.90;;;;;;4976686;28;20570;-76
2023/05/13 08:51:34;;;;;;;0.70;0.20;;;17.90;99.90;;;;;;4977207;28;20568;-76
2023/05/13 08:54:03;;;;;;;0.60;0.20;;;17.90;99.90;;;;;;4986733;28;20452;-75
2023/05/13 08:56:34;;;;;;;0.60;0.10;;;18.00;99.90;;;;;;4996383;28;20471;-77
2023/05/13 08:59:02;;;;;;;0.70;0.20;;;18.00;99.90;;;;;;4996468;28;20452;-77
2023/05/13 09:01:30;;;;;;;0.60;0.20;;;18.00;99.90;;;;;;4995960;28;20479;-78
2023/05/13 09:04:02;;;;;;;0.60;0.30;;;18.10;99.90;;;;;;4985973;28;20484;-76
2023/05/13 09:06:30;;;;;;;0.60;0.10;;;18.10;99.90;;;;;;4976492;28;20990;-77
2023/05/13 09:08:58;;;;;;;0.60;0.10;;;18.10;99.90;;;;;;4976415;28;20456;-76
2023/05/13 09:11:26;;;;;;;0.60;0.10;;;18.20;99.90;;;;;;4986589;28;20461;-77
2023/05/13 09:13:58;;;;;;;0.60;0.10;;;18.20;99.90;;;;;;4977343;28;20444;-77
2023/05/13 09:16:28;;;;;;;0.70;0.27;;;18.20;99.90;;;;;;4973586;28;20500;-74
2023/05/13 09:18:58;;;;;;;0.60;0.10;;;18.30;99.90;;;;;;4978604;28;20437;-75
2023/05/13 09:21:27;;;;;;;0.60;0.20;;;18.30;99.90;;;;;;4976894;28;21008;-73
2023/05/13 09:24:09;;;;;;;0.80;0.50;;;18.30;98.70;;;;;;4976991;28;20568;-72
2023/05/13 09:26:38;;;;;;;0.70;0.30;;;18.40;99.90;;;;;;4982014;28;20473;-75
2023/05/13 09:29:21;;;;;;;1.53;0.70;;;18.50;99.90;;;;;;4980522;28;20459;-71
2023/05/13 09:31:54;;;;;;;0.60;0.17;;;18.60;99.90;;;;;;4976319;28;20471;-71
2023/05/13 09:34:27;;;;;;;0.60;0.10;;;18.50;87.50;;;;;;4982201;28;20460;-74
2023/05/13 09:37:03;;;;;;;0.60;0.20;;;18.50;79.70;;;;;;4992560;28;20459;-71
2023/05/13 09:39:32;;;;;;;0.97;0.40;;;18.50;68.10;;;;;;4995140;28;20444;-73
2023/05/13 09:42:01;;;;;;;2.63;2.53;;;18.50;62.60;;;;;;4977274;28;20462;-72
2023/05/13 09:44:33;;;;;;;0.87;0.53;;;18.50;61.50;;;;;;4974634;28;20488;-71
2023/05/13 09:47:02;;;;;;;0.60;0.20;;;18.50;60.50;;;;;;4975332;28;20519;-72
2023/05/13 09:49:31;;;;;;;1.20;0.77;;;18.60;59.50;;;;;;4980488;28;20796;-71
2023/05/13 09:51:59;;;;;;;0.60;0.30;;;18.50;59.20;;;;;;4980723;28;20469;-73
2023/05/13 09:54:34;;;;;;;0.60;0.10;;;18.60;61.40;;;;;;4980216;28;20445;-71
2023/05/13 09:57:02;;;;;;;0.80;0.33;;;18.70;64.50;;;;;;4979533;28;20465;-70
2023/05/13 09:59:33;;;;;;;0.70;0.30;;;19.00;67.30;;;;;;4984608;28;20444;-71
2023/05/13 10:02:04;;;;;;;0.70;0.30;;;19.10;69.90;;;;;;4982586;28;21585;-72
2023/05/13 10:04:33;;;;;;;1.83;0.50;;;19.10;69.00;;;;;;4983426;28;20514;-73
2023/05/13 10:07:03;;;;;;;0.90;0.60;;;19.20;65.50;;;;;;4981281;28;20882;-72
2023/05/13 10:09:35;;;;;;;1.90;1.23;;;19.10;58.20;;;;;;4986412;28;20450;-72
2023/05/13 10:12:07;;;;;;;0.60;0.17;;;19.20;56.10;;;;;;4984452;28;20543;-73
2023/05/13 10:14:37;;;;;;;0.70;0.40;;;19.30;56.30;;;;;;4985819;28;20436;-73
2023/05/13 10:19:33;;;;;;;0.80;0.40;;;19.30;59.10;;;;;;4978002;28;20480;-74
2023/05/13 10:22:02;;;;;;;0.60;0.20;;;19.50;67.50;;;;;;4978108;28;21000;-72
2023/05/13 10:24:30;;;;;;;0.60;0.10;;;19.50;65.50;;;;;;4970450;28;20485;-70
2023/05/13 10:27:02;;;;;;;0.60;0.20;;;19.80;67.60;;;;;;4970004;28;20438;-71
2023/05/13 10:29:30;;;;;;;0.60;0.10;;;19.80;80.20;;;;;;4957658;28;20438;-72
2023/05/13 10:32:00;;;;;;;0.60;0.20;;;20.00;75.50;;;;;;4975753;28;20446;-72
2023/05/13 10:34:30;;;;;;;0.60;0.10;;;20.00;86.50;;;;;;4954917;28;20969;-71
2023/05/13 10:37:18;;;;;;;0.60;0.10;;;20.10;70.00;;;;;;4973168;28;20443;-72
2023/05/13 10:40:06;;;;;;;0.60;0.20;;;20.00;66.70;;;;;;4949652;28;20452;-72
2023/05/13 10:42:41;;;;;;;0.60;0.10;;;20.10;66.10;;;;;;4973552;28;20797;-72
2023/05/13 10:45:09;;;;;;;0.60;0.10;;;20.10;77.90;;;;;;4973640;28;20491;-71
2023/05/13 10:47:39;;;;;;;0.70;0.30;;;20.30;65.80;;;;;;4973782;28;21040;-72
2023/05/13 10:50:21;;;;;;;0.60;0.10;;;20.30;77.00;;;;;;4973824;28;20465;-71
2023/05/13 10:52:49;;;;;;;0.60;0.20;;;20.30;77.30;;;;;;4971272;28;20473;-71
2023/05/13 10:55:19;;;;;;;0.60;0.20;;;20.20;44.70;;;;;;4970668;28;20473;-72
2023/05/13 10:58:09;;;;;;;0.60;0.13;;;20.20;43.70;;;;;;4972750;28;20469;-71
2023/05/13 11:00:38;;;;;;;0.60;0.10;;;20.30;54.40;;;;;;4968878;28;20845;-72
2023/05/13 11:03:15;;;;;;;0.60;0.10;;;20.40;48.20;;;;;;4973225;28;20441;-71
2023/05/13 11:05:46;;;;;;;0.60;0.10;;;20.40;59.10;;;;;;4977120;28;20501;-72
2023/05/13 11:08:39;;;;;;;0.93;0.53;;;20.30;41.80;;;;;;4983122;28;20465;-69
2023/05/13 11:11:25;;;;;;;0.90;0.30;;;20.10;41.60;;;;;;4981295;28;20445;-71
2023/05/13 11:13:54;;;;;;;0.60;0.10;;;20.00;40.90;;;;;;4976736;28;21147;-72
2023/05/13 11:16:22;;;;;;;0.60;0.20;;;19.90;43.50;;;;;;4983301;28;20499;-72
2023/05/13 11:18:53;;;;;;;0.73;0.50;;;19.90;41.30;;;;;;4975888;28;20500;-71
2023/05/13 11:21:30;;;;;;;0.60;0.20;;;19.80;43.10;;;;;;4982532;28;20437;-71
2023/05/13 11:24:02;;;;;;;0.60;0.17;;;19.80;42.60;;;;;;4975574;28;20580;-71
2023/05/13 11:26:46;;;;;;;0.60;0.20;;;19.80;40.30;;;;;;4973245;28;20786;-72
2023/05/13 11:29:15;;;;;;;0.80;0.40;;;19.80;41.70;;;;;;4972831;28;20535;-72
2023/05/13 11:31:45;;;;;;;0.60;0.20;;;19.80;42.60;;;;;;4973224;28;20525;-71
2023/05/13 11:34:16;;;;;;;0.70;0.57;;;19.70;33.40;;;;;;4972524;28;20470;-71
2023/05/13 11:36:48;;;;;;;0.60;0.20;;;19.60;32.70;;;;;;4975317;28;20477;-71
2023/05/13 11:39:18;;;;;;;0.60;0.10;;;19.70;33.30;;;;;;4989771;28;20464;-72
2023/05/13 11:41:46;;;;;;;0.60;0.20;;;19.70;33.00;;;;;;4980575;28;20540;-71
2023/05/13 11:44:16;;;;;;;0.60;0.10;;;19.80;26.50;;;;;;4972260;28;20489;-71
2023/05/13 11:46:54;;;;;;;0.60;0.10;;;19.80;25.90;;;;;;4973147;28;20502;-71
2023/05/13 11:49:41;;;;;;;0.60;0.10;;;19.80;24.80;;;;;;4973672;28;20446;-70
2023/05/13 11:52:10;;;;;;;0.60;0.10;;;20.00;35.30;;;;;;4972497;28;20446;-72
2023/05/13 11:54:43;;;;;;;0.60;0.10;;;20.20;23.90;;;;;;4978051;28;20520;-70
2023/05/13 11:57:24;;;;;;;0.93;0.20;;;20.40;26.00;;;;;;4975875;28;20442;-70
2023/05/13 11:59:57;;;;;;;0.80;0.67;;;20.40;28.00;;;;;;4987728;28;20437;-72
2023/05/13 12:02:26;;;;;;;0.60;0.20;;;20.30;20.90;;;;;;4992364;28;20489;-71
2023/05/13 12:04:59;;;;;;;0.60;0.20;;;20.30;20.00;;;;;;4992272;28;20485;-71
2023/05/13 12:07:27;;;;;;;0.60;0.20;;;20.20;18.60;;;;;;4977477;28;20469;-72
2023/05/13 12:09:57;;;;;;;0.60;0.20;;;20.20;19.30;;;;;;4976865;28;20446;-72
2023/05/13 12:12:26;;;;;;;0.60;0.20;;;20.00;15.00;;;;;;4976312;28;20450;-72
2023/05/13 12:14:56;;;;;;;10.60;5.00;;;20.10;22.90;;;;;;4976690;28;20485;-72
2023/05/13 12:17:23;;;;;;;0.60;0.10;;;20.00;15.60;;;;;;4975961;28;20477;-72
2023/05/13 12:20:11;;;;;;;0.60;0.20;;;20.00;15.50;;;;;;4976840;28;20426;-77
2023/05/13 12:22:51;;;;;;;0.60;0.20;;;20.10;15.40;;;;;;4977123;28;20445;-78
2023/05/13 12:25:40;;;;;;;0.60;0.20;;;20.20;15.60;;;;;;4975960;28;20474;-74
2023/05/13 12:28:15;;;;;;;0.70;0.20;;;20.30;16.70;;;;;;4975983;28;20488;-74
2023/05/13 12:30:50;;;;;;;1.17;0.73;;;20.30;18.70;;;;;;4975987;28;20471;-74
2023/05/13 12:33:19;;;;;;;1.13;1.03;;;20.30;22.30;;;;;;4976698;28;20461;-72
2023/05/13 12:35:50;;;;;;;0.70;0.30;;;20.10;21.90;;;;;;4975618;28;20458;-73
2023/05/13 12:38:20;;;;;;;1.37;0.50;;;19.70;22.00;;;;;;4968464;28;21146;-72
2023/05/13 12:40:49;;;;;;;1.40;1.30;;;19.30;23.20;;;;;;4976596;28;20544;-73
2023/05/13 12:43:18;;;;;;;0.70;0.40;;;19.10;26.90;;;;;;4976867;28;20445;-72
2023/05/13 12:45:47;;;;;;;0.80;0.77;;;19.00;26.20;;;;;;4977135;28;20509;-74
2023/05/13 12:48:15;;;;;;;0.60;0.20;;;18.90;26.40;;;;;;4975905;28;20501;-73
2023/05/13 12:50:43;;;;;;;0.60;0.20;;;18.80;36.40;;;;;;4977318;28;20452;-73
2023/05/13 12:53:12;;;;;;;1.00;0.33;;;18.80;25.70;;;;;;4976293;28;20498;-71
2023/05/13 12:55:40;;;;;;;0.60;0.30;;;18.80;26.00;;;;;;4977282;28;20442;-72
2023/05/13 12:58:10;;;;;;;0.63;0.20;;;18.90;20.60;;;;;;4977451;28;20469;-72
2023/05/13 13:00:38;;;;;;;0.60;0.20;;;18.90;23.20;;;;;;4977053;28;20442;-71
2023/05/13 13:03:06;;;;;;;0.60;0.30;;;19.00;23.10;;;;;;4976200;28;20505;-72
2023/05/13 13:05:35;;;;;;;0.70;0.40;;;19.00;21.00;;;;;;4976282;28;20525;-72
2023/05/13 13:08:04;;;;;;;0.60;0.10;;;19.10;20.40;;;;;;4975747;28;21015;-72
2023/05/13 13:10:34;;;;;;;0.77;0.47;;;19.20;23.00;;;;;;4975971;28;20481;-72
2023/05/13 13:13:01;;;;;;;0.60;0.10;;;19.30;26.10;;;;;;4975710;28;20846;-73
2023/05/13 13:15:29;;;;;;;0.60;0.20;;;19.40;25.70;;;;;;4972699;28;20934;-72
2023/05/13 13:17:57;;;;;;;0.60;0.10;;;19.60;25.60;;;;;;4978351;28;20478;-73
2023/05/13 13:20:25;;;;;;;0.60;0.10;;;19.90;22.50;;;;;;4984500;28;20541;-71
2023/05/13 13:22:53;;;;;;;0.60;0.20;;;20.10;21.80;;;;;;4988858;28;20473;-72
2023/05/13 13:25:21;;;;;;;0.60;0.10;;;20.30;21.40;;;;;;4979309;28;20473;-73
2023/05/13 13:27:51;;;;;;;0.60;0.10;;;20.40;22.00;;;;;;4976673;28;21005;-72
2023/05/13 13:30:19;;;;;;;0.60;0.10;;;20.50;25.70;;;;;;4976386;28;20458;-71
2023/05/13 13:32:46;;;;;;;0.60;0.10;;;20.50;35.00;;;;;;4975806;28;20450;-72
2023/05/13 13:35:14;;;;;;;0.60;0.20;;;20.50;28.40;;;;;;4976006;28;20533;-71
2023/05/13 13:37:42;;;;;;;0.60;0.13;;;20.50;27.00;;;;;;4975034;28;20462;-72
2023/05/13 13:40:12;;;;;;;0.60;0.10;;;20.40;36.50;;;;;;4974797;28;20450;-72
2023/05/13 13:42:40;;;;;;;0.60;0.10;;;20.40;22.20;;;;;;4970015;28;20462;-72
2023/05/13 13:45:14;;;;;;;0.60;0.10;;;20.40;24.10;;;;;;4974044;28;20485;-72
2023/05/13 13:47:42;;;;;;;0.60;0.10;;;20.40;23.40;;;;;;4974916;28;20832;-72
2023/05/13 13:50:11;;;;;;;0.60;0.10;;;20.40;19.20;;;;;;4975496;28;20454;-73
2023/05/13 13:52:39;;;;;;;0.60;0.10;;;20.40;20.70;;;;;;4974821;28;20533;-73
2023/05/13 13:55:08;;;;;;;0.60;0.13;;;20.60;20.30;;;;;;4974132;28;20859;-73
2023/05/13 13:57:36;;;;;;;0.60;0.10;;;20.70;21.20;;;;;;4973075;28;21057;-72
2023/05/13 14:00:05;;;;;;;0.60;0.10;;;20.80;19.80;;;;;;4975001;28;20449;-72
2023/05/13 14:02:34;;;;;;;0.60;0.10;;;20.80;15.80;;;;;;4975020;28;20513;-72
2023/05/13 14:05:01;;;;;;;0.70;0.50;;;20.80;16.80;;;;;;4975491;28;20450;-72
2023/05/13 14:07:29;;;;;;;0.60;0.20;;;20.90;14.70;;;;;;4977551;28;20528;-72
2023/05/13 14:09:57;;;;;;;0.60;0.10;;;20.90;16.70;;;;;;4976356;28;20449;-72
2023/05/13 14:12:28;;;;;;;0.60;0.20;;;20.90;15.40;;;;;;4977265;28;20526;-72
2023/05/13 14:14:56;;;;;;;0.60;0.20;;;20.90;15.50;;;;;;4978917;28;20457;-72
2023/05/13 14:17:24;;;;;;;0.60;0.20;;;20.90;13.20;;;;;;4975374;28;20476;-73
2023/05/13 14:19:54;;;;;;;0.60;0.10;;;20.90;16.10;;;;;;4974249;28;20787;-74
2023/05/13 14:22:22;;;;;;;0.60;0.20;;;20.90;24.60;;;;;;4974817;28;20942;-75
2023/05/13 14:24:51;;;;;;;0.60;0.20;;;21.00;14.70;;;;;;4974441;28;20449;-72
2023/05/13 14:27:19;;;;;;;0.60;0.30;;;20.90;9.40;;;;;;4973693;28;20831;-73
2023/05/13 14:29:47;;;;;;;0.60;0.10;;;20.10;9.30;;;;;;4973625;28;20533;-73
2023/05/13 14:32:16;;;;;;;0.60;0.10;;;20.90;8.10;;;;;;4973556;28;20962;-73
2023/05/13 14:34:43;;;;;;;0.60;0.10;;;20.80;4.30;;;;;;4973739;28;20947;-73
2023/05/13 14:37:12;;;;;;;0.60;0.20;;;20.70;5.60;;;;;;4974238;28;20808;-73
2023/05/13 14:39:40;;;;;;;0.60;0.10;;;20.60;3.40;;;;;;4974151;28;20443;-75
2023/05/13 14:42:10;;;;;;;0.60;0.20;;;20.60;3.20;;;;;;4972138;28;20478;-73
2023/05/13 14:44:40;;;;;;;0.60;0.10;;;20.50;2.00;;;;;;4973652;28;20950;-75
2023/05/13 14:47:08;;;;;;;0.60;0.20;;;20.50;3.50;;;;;;4973423;28;20551;-75
2023/05/13 14:49:36;;;;;;;0.60;0.20;;;20.60;5.40;;;;;;4974041;28;20573;-74
2023/05/13 14:52:04;;;;;;;0.60;0.10;;;20.60;3.40;;;;;;4973739;28;20446;-74
2023/05/13 14:54:36;;;;;;;0.60;0.10;;;20.60;1.30;;;;;;4972985;28;20911;-74
2023/05/13 14:57:05;;;;;;;0.60;0.10;;;20.80;3.50;;;;;;4973535;28;20497;-74
2023/05/13 14:59:33;;;;;;;0.60;0.10;;;20.90;1.00;;;;;;4974578;28;20464;-75
2023/05/13 15:02:01;;;;;;;0.60;0.10;;;20.90;1.00;;;;;;4977981;28;20580;-75
2023/05/13 15:04:29;;;;;;;0.70;0.40;;;20.80;1.00;;;;;;4977568;28;20562;-74
2023/05/13 15:06:58;;;;;;;0.60;0.10;;;20.80;1.00;;;;;;4987245;28;20480;-74
2023/05/13 15:09:25;;;;;;;0.60;0.20;;;20.80;1.50;;;;;;4980567;28;20462;-75
2023/05/13 15:11:55;;;;;;;0.60;0.10;;;21.00;5.60;;;;;;4973306;28;20447;-74
2023/05/13 15:14:24;;;;;;;0.60;0.20;;;21.20;3.70;;;;;;4974149;28;20442;-74
2023/05/13 15:16:52;;;;;;;0.60;0.23;;;21.40;3.90;;;;;;4973706;28;20888;-74
2023/05/13 15:19:20;;;;;;;0.60;0.20;;;21.70;5.10;;;;;;4972786;28;21020;-75
2023/05/13 15:21:48;;;;;;;0.60;0.20;;;21.80;2.60;;;;;;4968894;28;20979;-74
2023/05/13 15:24:16;;;;;;;0.60;0.20;;;21.70;10.90;;;;;;4959066;28;20458;-73
2023/05/13 15:26:44;;;;;;;0.60;0.10;;;;;;;;;;4969496;28;21021;-74
2023/05/13 15:29:15;;;;;;;0.60;0.10;;;22.50;1.70;;;;;;4973273;28;20480;-74
2023/05/13 15:31:43;;;;;;;0.60;0.10;;;22.60;4.00;;;;;;4974284;28;20450;-72
2023/05/13 15:34:10;;;;;;;0.60;0.20;;;22.60;3.50;;;;;;4975448;28;20451;-72
2023/05/13 15:36:38;;;;;;;0.60;0.20;;;22.70;2.50;;;;;;4975279;28;20460;-72
2023/05/13 15:39:06;;;;;;;0.60;0.10;;;22.70;3.80;;;;;;4973980;28;20470;-73
2023/05/13 15:41:35;;;;;;;0.60;0.10;;;22.90;14.40;;;;;;4972794;28;20471;-73
2023/05/13 15:44:03;;;;;;;0.60;0.20;;;22.80;1.40;;;;;;4972894;28;20444;-72
2023/05/13 15:46:33;;;;;;;0.77;0.30;;;22.50;1.00;;;;;;4972662;28;20561;-73
2023/05/13 15:49:01;;;;;;;1.23;1.13;;;22.40;1.60;;;;;;4972836;28;20507;-73
2023/05/13 15:51:29;;;;;;;0.60;0.10;;;22.40;9.80;;;;;;4972049;28;20816;-73
2023/05/13 15:53:57;;;;;;;0.60;0.10;;;;;;;;;;4972931;28;20468;-74
2023/05/13 15:56:25;;;;;;;0.60;0.10;;;22.30;1.60;;;;;;4961020;28;20459;-73
2023/05/13 15:58:54;;;;;;;0.60;0.10;;;22.40;4.30;;;;;;4972352;28;20471;-72
2023/05/13 16:01:22;;;;;;;0.60;0.10;;;22.60;3.10;;;;;;4971465;28;20956;-72
2023/05/13 16:03:51;;;;;;;0.70;0.60;;;22.90;3.20;;;;;;4972340;28;20448;-71
2023/05/13 16:06:19;;;;;;;0.60;0.20;;;23.00;11.90;;;;;;4973998;28;20444;-69
2023/05/13 16:08:47;;;;;;;0.60;0.20;;;23.30;2.20;;;;;;4973368;28;20510;-70
2023/05/13 16:11:15;;;;;;;0.70;0.53;;;;;;;;;;4972318;28;20447;-71
2023/05/13 16:13:43;;;;;;;0.70;0.17;;;23.50;2.30;;;;;;4972855;28;20523;-72
2023/05/13 16:16:11;;;;;;;0.60;0.10;;;23.30;2.20;;;;;;4972095;28;20448;-72
2023/05/13 16:18:39;;;;;;;0.70;0.20;;;23.30;2.20;;;;;;4938471;28;1024210;-73
2023/05/13 16:21:08;;;;;;;0.70;0.20;;;23.10;2.10;;;;;;4970158;28;20212;-73
2023/05/13 16:23:36;;;;;;;0.60;0.20;;;22.90;1.00;;;;;;4973565;28;20459;-72
2023/05/13 16:26:04;;;;;;;0.70;0.30;;;22.90;8.80;;;;;;4973084;28;20452;-73
2023/05/13 16:28:32;;;;;;;0.60;0.10;;;;;;;;;;4973518;28;20492;-73
2023/05/13 16:31:00;;;;;;;0.60;0.10;;;22.70;1.90;;;;;;4973007;28;20456;-74
2023/05/13 16:33:30;;;;;;;0.60;0.10;;;22.40;1.80;;;;;;4969125;28;20535;-72
2023/05/13 16:35:58;;;;;;;1.00;0.80;;;;;;;;;;4979260;28;20972;-73
2023/05/13 16:38:29;;;;;;;0.60;0.10;;;22.40;1.60;;;;;;4962009;28;20511;-73
2023/05/13 16:40:57;;;;;;;0.60;0.20;;;22.40;1.50;;;;;;4972397;28;20562;-73
2023/05/13 16:43:24;;;;;;;0.60;0.20;;;22.40;9.80;;;;;;4978559;28;20470;-73
2023/05/13 16:45:52;;;;;;;0.63;0.23;;;22.60;2.30;;;;;;4976127;28;20450;-74
2023/05/13 16:48:20;;;;;;;0.60;0.20;;;;;;;;;;4972946;28;20533;-73
2023/05/13 16:50:49;;;;;;;0.60;0.20;;;23.10;2.50;;;;;;4973150;28;20453;-73
2023/05/13 16:53:16;;;;;;;0.60;0.10;;;23.10;10.60;;;;;;4976627;28;20955;-73
2023/05/13 16:55:46;;;;;;;0.70;0.20;;;23.60;2.40;;;;;;4976268;28;20444;-73
2023/05/13 16:58:13;;;;;;;0.70;0.17;;;23.90;2.60;;;;;;4975406;28;20999;-72
2023/05/13 17:00:41;;;;;;;0.70;0.20;;;24.10;1.00;;;;;;4976063;28;20495;-73
2023/05/13 17:03:11;;;;;;;0.70;0.10;;;24.30;2.90;;;;;;4975823;28;20469;-74
2023/05/13 17:05:40;;;;;;;0.70;0.20;;;24.60;3.10;;;;;;4976229;28;20445;-72
2023/05/13 17:08:08;;;;;;;0.70;0.20;;;24.90;3.30;;;;;;4979803;28;20540;-73
2023/05/13 17:10:35;;;;;;;0.70;0.20;;;25.00;1.50;;;;;;4978354;28;20838;-73